createdAt,value
2023-03-24T00:00:24.253Z,12.80
2023-03-24T00:05:28.726Z,12.50
2023-03-24T00:10:34.948Z,12.30
2023-03-24T00:15:38.704Z,12.10
2023-03-24T00:20:42.361Z,12.20
2023-03-24T00:25:45.344Z,12.10
2023-03-24T00:30:53.265Z,12.20
2023-03-24T00:35:55.556Z,12.50
2023-03-24T00:40:59.076Z,13.10
2023-03-24T00:46:04.228Z,12.90
2023-03-24T00:51:11.238Z,12.60
2023-03-24T00:56:15.757Z,12.50
2023-03-24T01:01:22.338Z,12.50
2023-03-24T01:06:25.404Z,12.50
2023-03-24T01:11:29.813Z,12.50
2023-03-24T01:16:33.661Z,12.60
2023-03-24T01:21:37.013Z,12.50
2023-03-24T01:26:39.349Z,12.50
2023-03-24T01:31:42.771Z,12.60
2023-03-24T01:36:45.009Z,12.50
2023-03-24T01:41:47.475Z,12.40
2023-03-24T01:46:51.199Z,12.40
2023-03-24T01:51:56.990Z,12.30
2023-03-24T01:57:04.032Z,12.30
2023-03-24T02:02:08.360Z,12.30
2023-03-24T02:07:19.872Z,12.30
2023-03-24T02:12:22.256Z,12.20
2023-03-24T02:17:37.528Z,12.10
2023-03-24T02:23:17.467Z,12.00
2023-03-24T02:28:28.857Z,11.90
2023-03-24T02:34:31.319Z,12.10
2023-03-24T02:39:51.792Z,12.20
2023-03-24T02:45:05.676Z,12.10
2023-03-24T02:50:16.661Z,11.90
2023-03-24T02:55:27.599Z,11.90
2023-03-24T03:00:33.882Z,12.10
2023-03-24T03:05:38.844Z,12.20
2023-03-24T03:10:44.946Z,12.10
2023-03-24T03:15:52.006Z,12.10
2023-03-24T03:20:59.886Z,12.10
2023-03-24T03:26:07.793Z,12.00
2023-03-24T03:31:15.068Z,12.00
2023-03-24T03:36:24.326Z,12.00
2023-03-24T03:41:28.523Z,11.90
2023-03-24T03:46:32.447Z,11.90
2023-03-24T03:51:35.151Z,11.90
2023-03-24T03:56:41.114Z,11.90
2023-03-24T04:01:43.290Z,11.80
2023-03-24T04:06:54.004Z,11.80
2023-03-24T04:12:24.978Z,11.70
2023-03-24T04:17:45.055Z,11.70
2023-03-24T04:23:03.479Z,11.80
2023-03-24T04:28:16.847Z,11.80
2023-03-24T04:33:25.357Z,11.70
2023-03-24T04:38:29.146Z,11.60
2023-03-24T04:43:36.891Z,11.60
2023-03-24T04:48:39.214Z,11.60
2023-03-24T04:53:41.652Z,11.50
2023-03-24T04:58:45.208Z,11.40
2023-03-24T05:03:47.357Z,11.20
2023-03-24T05:08:49.503Z,11.00
2023-03-24T05:13:53.077Z,11.00
2023-03-24T05:18:55.059Z,11.00
2023-03-24T05:23:57.297Z,11.20
2023-03-24T05:29:00.800Z,11.10
2023-03-24T05:34:02.732Z,11.10
2023-03-24T05:39:05.600Z,11.10
2023-03-24T05:44:09.163Z,11.20
2023-03-24T05:49:11.272Z,11.20
2023-03-24T05:54:13.539Z,11.10
2023-03-24T05:59:17.338Z,11.10
2023-03-24T06:04:20.966Z,11.20
2023-03-24T06:09:23.306Z,11.30
2023-03-24T06:14:27.638Z,11.40
2023-03-24T06:19:30.977Z,11.70
2023-03-24T06:24:33.357Z,11.70
2023-03-24T06:29:37.619Z,11.80
2023-03-24T06:34:40.754Z,11.90
2023-03-24T06:39:43.002Z,12.00
2023-03-24T06:44:46.833Z,12.20
2023-03-24T06:49:48.506Z,12.40
2023-03-24T06:54:50.587Z,12.70
2023-03-24T06:59:54.548Z,13.90
2023-03-24T07:04:56.530Z,13.80
2023-03-24T07:09:58.847Z,13.80
2023-03-24T07:15:04.460Z,14.00
2023-03-24T07:20:09.166Z,14.20
2023-03-24T07:25:14.377Z,14.30
2023-03-24T07:30:24.184Z,14.60
2023-03-24T07:35:29.731Z,14.50
2023-03-24T07:40:32.120Z,14.50
2023-03-24T07:45:35.710Z,14.60
2023-03-24T07:50:37.884Z,14.60
2023-03-24T07:55:40.188Z,14.40
2023-03-24T08:00:43.804Z,14.30
2023-03-24T08:05:47.386Z,14.20
2023-03-24T08:10:50.531Z,14.20
2023-03-24T08:15:54.180Z,14.20
2023-03-24T08:20:59.599Z,14.20
2023-03-24T08:26:02.726Z,14.10
2023-03-24T08:31:06.850Z,14.10
2023-03-24T08:36:09.438Z,14.20
2023-03-24T08:41:11.528Z,14.20
2023-03-24T08:46:16.822Z,14.20
2023-03-24T08:51:19.731Z,14.20
2023-03-24T08:56:22.356Z,14.10
2023-03-24T09:01:26.254Z,13.90
2023-03-24T09:06:28.559Z,13.80
2023-03-24T09:11:30.856Z,13.80
2023-03-24T09:16:34.916Z,13.90
2023-03-24T09:21:38.554Z,13.80
2023-03-24T09:26:40.677Z,13.50
2023-03-24T09:31:44.601Z,13.50
2023-03-24T09:36:46.655Z,13.80
2023-03-24T09:41:51.145Z,14.20
2023-03-24T09:47:02.607Z,14.60
2023-03-24T09:52:07.786Z,15.10
2023-03-24T09:57:18.131Z,14.70
2023-03-24T10:02:23.793Z,14.40
2023-03-24T10:07:34.041Z,14.20
2023-03-24T10:12:38.649Z,14.20
2023-03-24T10:17:50.652Z,14.20
2023-03-24T10:23:01.173Z,14.10
2023-03-24T10:28:10.105Z,14.40
2023-03-24T10:33:15.094Z,14.50
2023-03-24T10:38:19.769Z,14.80
2023-03-24T10:43:23.521Z,14.80
2023-03-24T10:48:45.498Z,14.50
2023-03-24T10:53:49.036Z,14.50
2023-03-24T10:58:51.996Z,14.50
2023-03-24T11:04:01.477Z,14.60
2023-03-24T11:09:21.752Z,14.50
2023-03-24T11:14:26.652Z,14.40
2023-03-24T11:19:32.532Z,14.40
2023-03-24T11:24:37.942Z,14.10
2023-03-24T11:29:41.463Z,14.10
2023-03-24T11:34:52.825Z,14.10
2023-03-24T11:40:22.789Z,14.20
2023-03-24T11:45:29.285Z,14.20
2023-03-24T11:50:37.394Z,14.20
2023-03-24T11:55:48.459Z,14.10
2023-03-24T12:00:56.704Z,13.90
2023-03-24T12:06:07.304Z,13.70
2023-03-24T12:11:18.023Z,13.50
2023-03-24T12:16:41.592Z,13.30
2023-03-24T12:21:56.303Z,13.30
2023-03-24T12:27:00.941Z,13.40
2023-03-24T12:32:22.491Z,13.50
2023-03-24T12:37:34.663Z,13.80
2023-03-24T12:42:41.528Z,13.80
2023-03-24T12:48:05.987Z,13.60
2023-03-24T12:53:26.623Z,13.80
2023-03-24T12:58:36.867Z,14.40
2023-03-24T13:03:42.927Z,14.50
2023-03-24T13:08:53.843Z,14.20
2023-03-24T13:13:56.704Z,13.90
2023-03-24T13:19:02.894Z,13.60
2023-03-24T13:24:11.165Z,13.30
2023-03-24T13:29:27.863Z,13.10
2023-03-24T13:34:40.046Z,12.80
2023-03-24T13:39:46.194Z,12.80
2023-03-24T13:44:50.775Z,12.60
2023-03-24T13:50:00.686Z,12.60
2023-03-24T13:55:11.829Z,12.60
2023-03-24T14:00:22.417Z,12.60
2023-03-24T14:05:56.404Z,12.50
2023-03-24T14:11:00.377Z,12.20
2023-03-24T14:16:36.217Z,12.10
2023-03-24T14:21:41.921Z,12.00
2023-03-24T14:26:45.671Z,12.00
2023-03-24T14:32:02.329Z,12.10
2023-03-24T14:37:10.353Z,12.10
2023-03-24T14:42:48.625Z,11.90
2023-03-24T14:48:00.297Z,11.90
2023-03-24T14:53:05.131Z,12.10
2023-03-24T14:58:18.981Z,12.20
2023-03-24T15:03:29.422Z,12.40
2023-03-24T15:08:31.943Z,12.50
2023-03-24T15:13:38.628Z,12.50
2023-03-24T15:18:59.750Z,12.20
2023-03-24T15:24:05.716Z,12.10
2023-03-24T15:29:09.512Z,12.10
2023-03-24T15:34:27.781Z,12.20
2023-03-24T15:39:33.814Z,12.30
2023-03-24T15:44:40.956Z,12.30
2023-03-24T15:49:51.509Z,12.30
2023-03-24T15:54:56.451Z,12.20
2023-03-24T16:00:16.475Z,12.20
2023-03-24T16:05:22.881Z,12.10
2023-03-24T16:10:35.486Z,12.00
2023-03-24T16:15:39.389Z,11.90
2023-03-24T16:20:41.832Z,11.80
2023-03-24T16:25:44.249Z,11.80
2023-03-24T16:30:51.328Z,11.90
2023-03-24T16:35:53.900Z,11.80
2023-03-24T16:40:57.920Z,11.80
2023-03-24T16:46:03.152Z,11.80
2023-03-24T16:51:07.123Z,11.70
2023-03-24T16:56:11.313Z,11.60
2023-03-24T17:01:26.747Z,11.60
2023-03-24T17:06:32.046Z,11.40
2023-03-24T17:11:37.135Z,11.50
2023-03-24T17:16:44.074Z,11.50
2023-03-24T17:21:50.792Z,11.40
2023-03-24T17:26:53.609Z,11.30
2023-03-24T17:31:59.625Z,11.30
2023-03-24T17:37:02.962Z,11.20
2023-03-24T17:42:05.730Z,11.10
2023-03-24T17:47:12.106Z,11.10
2023-03-24T17:52:14.742Z,11.00
2023-03-24T17:57:17.618Z,10.90
2023-03-24T18:02:22.116Z,10.90
2023-03-24T18:07:32.782Z,10.80
2023-03-24T18:12:36.375Z,10.80
2023-03-24T18:17:41.169Z,10.70
2023-03-24T18:22:46.950Z,10.70
2023-03-24T18:27:50.793Z,10.60
2023-03-24T18:32:56.086Z,10.60
2023-03-24T18:38:00.147Z,10.60
2023-03-24T18:43:04.852Z,10.60
2023-03-24T18:48:15.000Z,10.60
2023-03-24T18:53:20.645Z,10.60
2023-03-24T18:58:24.562Z,10.60
2023-03-24T19:03:31.020Z,10.50
2023-03-24T19:08:34.845Z,10.40
2023-03-24T19:13:38.768Z,10.30
2023-03-24T19:18:44.783Z,10.20
2023-03-24T19:23:52.372Z,10.20
2023-03-24T19:28:57.832Z,10.20
2023-03-24T19:34:03.410Z,10.30
2023-03-24T19:39:08.304Z,10.40
2023-03-24T19:44:15.859Z,11.00
2023-03-24T19:49:22.905Z,10.60
2023-03-24T19:54:28.170Z,10.50
2023-03-24T19:59:32.389Z,10.30
2023-03-24T20:04:38.111Z,10.10
2023-03-24T20:09:42.861Z,10.00
2023-03-24T20:14:46.703Z,9.90
2023-03-24T20:19:51.900Z,9.80
2023-03-24T20:24:56.764Z,9.60
2023-03-24T20:30:00.870Z,9.60
2023-03-24T20:35:10.968Z,9.40
2023-03-24T20:40:15.435Z,9.20
2023-03-24T20:45:20.741Z,9.10
2023-03-24T20:50:27.122Z,9.20
2023-03-24T20:55:32.962Z,9.00
2023-03-24T21:00:38.967Z,8.90
2023-03-24T21:05:45.244Z,8.60
2023-03-24T21:11:35.224Z,8.70
2023-03-24T21:22:38.822Z,8.30
2023-03-24T21:27:42.651Z,8.30
2023-03-24T21:32:46.056Z,8.30
2023-03-24T21:37:54.105Z,8.30
2023-03-24T21:42:57.152Z,8.20
2023-03-24T21:48:00.647Z,8.10
2023-03-24T21:53:06.762Z,7.80
2023-03-24T21:58:09.207Z,7.60
2023-03-24T22:03:11.757Z,7.60
2023-03-24T22:08:23.051Z,7.40
2023-03-24T22:13:25.824Z,7.30
2023-03-24T22:18:30.316Z,7.20
2023-03-24T22:23:36.223Z,7.30
2023-03-24T22:28:38.789Z,7.40
2023-03-24T22:33:41.151Z,7.30
2023-03-24T22:38:44.958Z,7.60
2023-03-24T22:43:47.582Z,7.50
2023-03-24T22:48:50.103Z,7.50
2023-03-24T22:53:54.157Z,7.40
2023-03-24T22:58:56.420Z,7.40
2023-03-24T23:03:58.761Z,7.40
2023-03-24T23:09:02.948Z,7.70
2023-03-24T23:14:06.297Z,8.00
2023-03-24T23:19:10.184Z,7.90
2023-03-24T23:24:13.981Z,7.80
2023-03-24T23:29:16.437Z,8.00
2023-03-24T23:34:18.969Z,7.70
2023-03-24T23:39:22.486Z,7.50
2023-03-24T23:44:25.158Z,7.60
2023-03-24T23:49:27.375Z,7.50
2023-03-24T23:54:31.324Z,7.40
2023-03-24T23:59:33.691Z,7.50
